»·PEaware :: BAW44N EGLL-KSAN

BAW44N :: EGLL-KSAN

FLIGHT INFORMATION

Flight Status: Arrived
Operator:
British Airways
More flights by this operator :: More flights under this callsign
Pilot: Henderson P. (1210)
Aircraft: BOEING 747-400 (WINGLETS)
(B744)
More flights by this aircraft type
Origin: EGLL Heathrow
United Kingdom
Destination: KSAN San Diego Intl-Lindbergh
United States
More flights between these airports :: More routes between these airports
Route: +CPT UL9 KENET UN14 PEMOB M17 VATRY DCT REVNU DCT AGORI DCT 62N020W 66N030W 68N040W 69N050W 69N060W DCT BOPUT DCT 6830N07000W 67N080W 6430N09000W DCT URMUD DCT ELTAX DCT 50N107W KU21S KU90Q PICHO BERYL J107 BLD HAKMN Q73 LVELL LUCKI1
File this flight plan on PilotEdge
Remarks:
Altitude:
(Current/Filed)
32,000ft
Speed:
(Current/Filed)
481kts
Departed: 28-Mar-19 06:40 AM
Arrived: 28-Mar-19 05:31 PM
Distance/Time
Traveled:
4752nm/10:51
Distance/Time
To Go:
Arrived

Flight Plot

Page will automatically refresh every two minutes.

Flight plan parsing failed; only flown route is shown


Map Options




Map Legend


Flown Route
Filed Route
Departure Airport
Arrival Airport
Navaid (VOR, NDB)
Fix

Horizontal Profiles

Position Reports

Time Latitude Longitude Heading Altitude Ground
Speed
28-Mar-19 05:50 51.469793 -0.480252 269 95ft 0kts
28-Mar-19 05:51 51.469793 -0.480252 269 95ft 0kts
28-Mar-19 05:52 51.469793 -0.480252 269 95ft 0kts
28-Mar-19 05:53 51.469793 -0.480252 269 95ft 0kts
28-Mar-19 05:54 51.469793 -0.480252 269 95ft 0kts
28-Mar-19 05:55 51.469793 -0.480252 269 95ft 0kts
28-Mar-19 05:56 51.469793 -0.480252 269 95ft 0kts
28-Mar-19 05:57 51.469793 -0.480252 269 95ft 0kts
28-Mar-19 05:58 51.469793 -0.480252 269 95ft 0kts
28-Mar-19 05:59 51.469793 -0.480252 269 95ft 0kts
28-Mar-19 06:00 51.469793 -0.480252 269 95ft 0kts
28-Mar-19 06:01 51.469793 -0.480252 269 95ft 0kts
28-Mar-19 06:02 51.469793 -0.480252 269 95ft 0kts
28-Mar-19 06:03 51.469793 -0.480252 269 95ft 0kts
28-Mar-19 06:04 51.469793 -0.480252 269 95ft 0kts
28-Mar-19 06:05 51.469793 -0.480252 269 95ft 0kts
28-Mar-19 06:06 51.469793 -0.480252 269 95ft 0kts
28-Mar-19 06:07 51.469793 -0.480252 269 95ft 0kts
28-Mar-19 06:08 51.469793 -0.480252 269 95ft 0kts
28-Mar-19 06:09 51.469793 -0.480252 269 95ft 0kts
28-Mar-19 06:10 51.469793 -0.480252 269 95ft 0kts
28-Mar-19 06:11 51.469793 -0.480252 269 95ft 0kts
28-Mar-19 06:12 51.469793 -0.480252 269 95ft 0kts
28-Mar-19 06:13 51.469793 -0.480252 269 95ft 0kts
28-Mar-19 06:14 51.469793 -0.480252 269 95ft 0kts
28-Mar-19 06:15 51.469793 -0.480252 269 95ft 0kts
28-Mar-19 06:16 51.469793 -0.480252 269 95ft 0kts
28-Mar-19 06:17 51.469793 -0.480252 269 95ft 0kts
28-Mar-19 06:18 51.469793 -0.480252 269 95ft 0kts
28-Mar-19 06:19 51.469793 -0.480252 269 95ft 0kts
28-Mar-19 06:20 51.469771 -0.479574 280 95ft 2kts
28-Mar-19 06:21 51.469521 -0.478753 339 95ft 2kts
28-Mar-19 06:22 51.469287 -0.478699 359 95ft 0kts
28-Mar-19 06:23 51.469287 -0.478699 359 95ft 0kts
28-Mar-19 06:24 51.470229 -0.478707 359 95ft 7kts
28-Mar-19 06:25 51.472315 -0.478747 358 95ft 8kts
28-Mar-19 06:26 51.474867 -0.478727 16 95ft 4kts
28-Mar-19 06:27 51.474903 -0.475943 88 95ft 15kts
28-Mar-19 06:28 51.475153 -0.466128 89 95ft 21kts
28-Mar-19 06:29 51.475295 -0.457455 90 95ft 17kts
28-Mar-19 06:30 51.475290 -0.449941 89 95ft 17kts
28-Mar-19 06:31 51.475037 -0.443028 89 95ft 13kts
28-Mar-19 06:32 51.474825 -0.437646 147 95ft 10kts
28-Mar-19 06:33 51.475983 -0.435575 39 95ft 3kts
28-Mar-19 06:34 51.476023 -0.435521 40 95ft 0kts
28-Mar-19 06:35 51.476024 -0.435520 40 95ft 0kts
28-Mar-19 06:36 51.476024 -0.435519 40 95ft 0kts
28-Mar-19 06:37 51.476025 -0.435519 40 95ft 0kts
28-Mar-19 06:38 51.477679 -0.434735 280 95ft 6kts
28-Mar-19 06:39 51.477637 -0.448313 269 96ft 113kts
28-Mar-19 06:40 51.476812 -0.524449 263 1220ft 183kts
28-Mar-19 06:41 51.463324 -0.609855 254 2695ft 205kts
28-Mar-19 06:42 51.453799 -0.701228 269 4292ft 214kts
28-Mar-19 06:43 51.454623 -0.812046 269 5067ft 278kts
28-Mar-19 06:44 51.458588 -0.937121 282 6096ft 282kts
28-Mar-19 06:45 51.474044 -1.063127 282 8604ft 295kts
28-Mar-19 06:46 51.488886 -1.195361 282 10877ft 309kts
28-Mar-19 06:47 51.507314 -1.345771 283 11555ft 382kts
28-Mar-19 06:48 51.536785 -1.517605 295 13355ft 412kts
28-Mar-19 06:49 51.585168 -1.688105 297 15522ft 428kts
28-Mar-19 06:50 51.635052 -1.867065 296 17482ft 446kts
28-Mar-19 06:51 51.685471 -2.053087 296 19324ft 460kts
28-Mar-19 06:52 51.737611 -2.244487 296 21023ft 473kts
28-Mar-19 06:53 51.790071 -2.441523 296 22664ft 482kts
28-Mar-19 06:54 51.833442 -2.649656 284 24127ft 497kts
28-Mar-19 06:55 51.861913 -2.870728 284 25513ft 505kts
28-Mar-19 06:56 51.891602 -3.093883 284 26701ft 512kts
28-Mar-19 06:57 51.921079 -3.319853 284 28012ft 511kts
28-Mar-19 06:58 51.949761 -3.545049 283 29288ft 509kts
28-Mar-19 06:59 51.977757 -3.769461 283 30462ft 506kts
28-Mar-19 07:00 52.005082 -3.993099 283 31529ft 504kts
28-Mar-19 07:01 52.032769 -4.214947 283 32548ft 500kts
28-Mar-19 07:02 52.060269 -4.436589 283 32662ft 498kts
28-Mar-19 07:03 52.085983 -4.657674 283 32662ft 497kts
28-Mar-19 07:04 52.111708 -4.877648 283 32654ft 495kts
28-Mar-19 07:05 52.140861 -5.095717 298 32642ft 490kts
28-Mar-19 07:06 52.238312 -5.239982 333 32635ft 475kts
28-Mar-19 07:07 52.356531 -5.335698 335 32614ft 473kts
28-Mar-19 07:08 52.474007 -5.432906 335 32609ft 473kts
28-Mar-19 07:09 52.579821 -5.558439 313 32605ft 480kts
28-Mar-19 07:10 52.660406 -5.734788 308 32599ft 483kts
28-Mar-19 07:11 52.739367 -5.914055 308 32591ft 482kts
28-Mar-19 07:12 52.819057 -6.091674 308 32583ft 480kts
28-Mar-19 07:13 52.897915 -6.269661 308 32573ft 479kts
28-Mar-19 07:14 52.976098 -6.447997 308 32561ft 478kts
28-Mar-19 07:15 53.053825 -6.626637 307 32560ft 477kts
28-Mar-19 07:16 53.131425 -6.806262 307 32559ft 476kts
28-Mar-19 07:17 53.208286 -6.985452 307 32560ft 476kts
28-Mar-19 07:18 53.285016 -7.165607 307 32559ft 475kts
28-Mar-19 07:19 53.361140 -7.345618 306 32549ft 474kts
28-Mar-19 07:20 53.436976 -7.526234 306 32541ft 473kts
28-Mar-19 07:22 53.512325 -7.706979 306 32539ft 472kts
28-Mar-19 07:23 53.587173 -7.887816 306 32535ft 471kts
28-Mar-19 07:24 53.661544 -8.068797 306 32532ft 470kts
28-Mar-19 07:25 53.735854 -8.250938 305 32529ft 470kts
28-Mar-19 07:26 53.809706 -8.433277 305 32526ft 471kts
28-Mar-19 07:27 53.883367 -8.616476 305 32524ft 470kts
28-Mar-19 07:28 53.956764 -8.800359 305 32524ft 471kts
28-Mar-19 07:29 54.029973 -8.985094 304 32520ft 468kts
28-Mar-19 07:30 54.101955 -9.168125 303 32515ft 466kts
28-Mar-19 07:31 54.173879 -9.352346 303 32512ft 466kts
28-Mar-19 07:32 54.245517 -9.537191 303 32511ft 467kts
28-Mar-19 07:33 54.317233 -9.722077 303 32511ft 467kts
28-Mar-19 07:34 54.388408 -9.909035 303 32510ft 467kts
28-Mar-19 07:35 54.460951 -10.093740 314 32501ft 467kts
28-Mar-19 07:36 54.566533 -10.223730 327 32505ft 469kts
28-Mar-19 07:37 54.678006 -10.341841 326 32502ft 469kts
28-Mar-19 07:38 54.789030 -10.460460 326 32499ft 472kts
28-Mar-19 07:39 54.900567 -10.579602 325 32497ft 471kts
28-Mar-19 07:40 55.011915 -10.700143 324 32494ft 471kts
28-Mar-19 07:41 55.122838 -10.821142 324 32456ft 471kts
28-Mar-19 07:42 55.233590 -10.942780 323 32438ft 470kts
28-Mar-19 07:43 55.344298 -11.065187 323 32428ft 470kts
28-Mar-19 07:44 55.455080 -11.188500 323 32413ft 470kts
28-Mar-19 07:45 55.565518 -11.312259 322 32402ft 470kts
28-Mar-19 07:45 55.657545 -11.416027 322 32395ft 470kts
28-Mar-19 07:47 55.785803 -11.561631 321 32384ft 470kts
28-Mar-19 07:48 55.896001 -11.687663 321 32376ft 470kts
28-Mar-19 07:49 56.005871 -11.814182 321 32369ft 470kts
28-Mar-19 07:50 56.115378 -11.941151 320 32362ft 469kts
28-Mar-19 07:50 56.206607 -12.047594 320 32356ft 469kts
28-Mar-19 07:52 56.334306 -12.197628 320 32348ft 470kts
28-Mar-19 07:52 56.425174 -12.305132 320 32342ft 469kts
28-Mar-19 07:53 56.534229 -12.434981 319 32335ft 469kts
28-Mar-19 07:54 56.642938 -12.565328 319 32327ft 469kts
28-Mar-19 07:55 56.751830 -12.696326 319 32320ft 468kts
28-Mar-19 07:57 56.878450 -12.850367 318 32311ft 468kts
28-Mar-19 07:57 56.968341 -12.960952 317 32304ft 467kts
28-Mar-19 07:58 57.077920 -13.091646 318 32300ft 469kts
28-Mar-19 07:59 57.187647 -13.221302 318 32290ft 469kts
28-Mar-19 08:00 57.297091 -13.351763 318 32666ft 472kts
28-Mar-19 08:01 57.407376 -13.481718 317 34220ft 467kts
28-Mar-19 08:02 57.516245 -13.612245 317 34261ft 465kts
28-Mar-19 08:03 57.624941 -13.743766 316 34251ft 466kts
28-Mar-19 08:04 57.733322 -13.875906 316 34206ft 464kts
28-Mar-19 08:05 57.841274 -14.008487 315 34192ft 464kts
28-Mar-19 08:06 57.949160 -14.141960 315 34181ft 463kts
28-Mar-19 08:07 58.056729 -14.276014 315 34168ft 463kts
28-Mar-19 08:08 58.163989 -14.410664 315 34120ft 463kts
28-Mar-19 08:09 58.271035 -14.546037 314 33908ft 463kts
28-Mar-19 08:10 58.377950 -14.682253 314 33877ft 462kts
28-Mar-19 08:11 58.484578 -14.819106 313 33853ft 462kts
28-Mar-19 08:12 58.590971 -14.956685 313 33830ft 461kts
28-Mar-19 08:13 58.696829 -15.094596 312 33808ft 460kts
28-Mar-19 08:14 58.802502 -15.233293 312 33786ft 460kts
28-Mar-19 08:15 58.908078 -15.372913 311 33726ft 459kts
28-Mar-19 08:16 59.013115 -15.512863 311 33705ft 458kts
28-Mar-19 08:17 59.117929 -15.653579 310 33684ft 457kts
28-Mar-19 08:18 59.222373 -15.794857 310 33666ft 455kts
28-Mar-19 08:19 59.326115 -15.936255 309 33647ft 455kts
28-Mar-19 08:20 59.429861 -16.078731 308 33628ft 454kts
28-Mar-19 08:21 59.532958 -16.221418 308 33611ft 452kts
28-Mar-19 08:22 59.635495 -16.364404 308 33594ft 452kts
28-Mar-19 08:23 59.738095 -16.508570 308 33581ft 452kts
28-Mar-19 08:24 59.840495 -16.653569 308 33601ft 451kts
28-Mar-19 08:25 59.942721 -16.799438 307 33583ft 453kts
28-Mar-19 08:26 60.045055 -16.946558 306 33568ft 453kts
28-Mar-19 08:27 60.147004 -17.094349 306 33553ft 451kts
28-Mar-19 08:28 60.248367 -17.242416 306 33539ft 450kts
28-Mar-19 08:29 60.349453 -17.391231 305 33526ft 449kts
28-Mar-19 08:30 60.450075 -17.540524 305 33514ft 449kts
28-Mar-19 08:31 60.550498 -17.690700 305 33500ft 449kts
28-Mar-19 08:32 60.651340 -17.842701 305 33487ft 451kts
28-Mar-19 08:33 60.751838 -17.995398 305 33477ft 451kts
28-Mar-19 08:34 60.853064 -18.150437 305 33468ft 455kts
28-Mar-19 08:35 60.953954 -18.306220 305 33458ft 454kts
28-Mar-19 08:36 61.055177 -18.463797 305 33450ft 457kts
28-Mar-19 08:37 61.156525 -18.622872 305 33438ft 458kts
28-Mar-19 08:38 61.257872 -18.783268 305 33429ft 458kts
28-Mar-19 08:39 61.358907 -18.944503 305 33421ft 458kts
28-Mar-19 08:40 61.460024 -19.107229 305 33415ft 459kts
28-Mar-19 08:41 61.561373 -19.271705 305 33409ft 463kts
28-Mar-19 08:42 61.662924 -19.437919 305 33402ft 464kts
28-Mar-19 08:43 61.764955 -19.605640 306 33398ft 466kts
28-Mar-19 08:44 61.866626 -19.774586 305 33393ft 466kts
28-Mar-19 08:45 61.968008 -19.945802 305 33389ft 466kts
28-Mar-19 08:46 62.064127 -20.126855 300 33386ft 455kts
28-Mar-19 08:47 62.154992 -20.314137 300 33373ft 456kts
28-Mar-19 08:48 62.246394 -20.503010 301 33367ft 458kts
28-Mar-19 08:49 62.339838 -20.691944 301 33365ft 461kts
28-Mar-19 08:50 62.432542 -20.883582 301 33364ft 462kts
28-Mar-19 08:51 62.524687 -21.076459 301 33362ft 463kts
28-Mar-19 08:52 62.617240 -21.272088 302 33360ft 464kts
28-Mar-19 08:53 62.709426 -21.468762 302 33358ft 464kts
28-Mar-19 08:54 62.801139 -21.666247 302 33355ft 464kts
28-Mar-19 08:55 62.893011 -21.865918 302 33350ft 465kts
28-Mar-19 08:56 62.984685 -22.067061 302 33276ft 466kts
28-Mar-19 08:57 63.076220 -22.269755 302 33273ft 468kts
28-Mar-19 08:58 63.167908 -22.474733 303 33273ft 469kts
28-Mar-19 08:59 63.259347 -22.681126 303 33257ft 469kts
28-Mar-19 09:00 63.350672 -22.889256 303 33255ft 470kts
28-Mar-19 09:01 63.441604 -23.098510 303 33270ft 470kts
28-Mar-19 09:02 63.532377 -23.309440 303 33268ft 470kts
28-Mar-19 09:03 63.622744 -23.521491 303 33265ft 471kts
28-Mar-19 09:04 63.713473 -23.736551 304 33252ft 472kts
28-Mar-19 09:05 63.803711 -23.952722 304 33271ft 474kts
28-Mar-19 09:06 63.893931 -24.170640 304 33272ft 473kts
28-Mar-19 09:07 63.983496 -24.389326 303 33275ft 473kts
28-Mar-19 09:08 64.072987 -24.610109 304 33240ft 474kts
28-Mar-19 09:09 64.161943 -24.831796 304 33235ft 475kts
28-Mar-19 09:10 64.251229 -25.056621 304 33233ft 475kts
28-Mar-19 09:11 64.339834 -25.281995 304 33227ft 476kts
28-Mar-19 09:12 64.428419 -25.509694 304 33224ft 476kts
28-Mar-19 09:13 64.516524 -25.738541 304 33220ft 476kts
28-Mar-19 09:14 64.604478 -25.969419 304 33217ft 476kts
28-Mar-19 09:15 64.691687 -26.200773 304 33216ft 476kts
28-Mar-19 09:16 64.778864 -26.434507 304 33214ft 476kts
28-Mar-19 09:17 64.865540 -26.669394 304 33213ft 476kts
28-Mar-19 09:18 64.951978 -26.906187 304 33211ft 476kts
28-Mar-19 09:19 65.037907 -27.144108 304 33214ft 475kts
28-Mar-19 09:20 65.123459 -27.383603 304 33215ft 476kts
28-Mar-19 09:21 65.208593 -27.624526 304 33217ft 476kts
28-Mar-19 09:22 65.293399 -27.867178 304 33218ft 476kts
28-Mar-19 09:23 65.377764 -28.111270 304 33220ft 476kts
28-Mar-19 09:24 65.461714 -28.356846 304 33223ft 476kts
28-Mar-19 09:25 65.545439 -28.604535 304 33225ft 476kts
28-Mar-19 09:26 65.628534 -28.853144 304 33226ft 475kts
28-Mar-19 09:27 65.711095 -29.102956 304 33230ft 475kts
28-Mar-19 09:28 65.793263 -29.354425 304 33194ft 475kts
28-Mar-19 09:29 65.875619 -29.606318 304 33197ft 476kts
28-Mar-19 09:30 65.956789 -29.862870 304 33200ft 475kts
28-Mar-19 09:31 66.032944 -30.126690 297 33204ft 473kts
28-Mar-19 09:32 66.099910 -30.405718 297 33208ft 472kts
28-Mar-19 09:33 66.166562 -30.684837 297 33212ft 472kts
28-Mar-19 09:34 66.235357 -30.962759 298 33216ft 472kts
28-Mar-19 09:35 66.302580 -31.242163 298 33236ft 471kts
28-Mar-19 09:36 66.368879 -31.523449 298 33239ft 471kts
28-Mar-19 09:37 66.434513 -31.805902 297 33242ft 470kts
28-Mar-19 09:38 66.499433 -32.089018 297 33244ft 470kts
28-Mar-19 09:39 66.564130 -32.374906 297 33246ft 470kts
28-Mar-19 09:40 66.627898 -32.660449 297 33248ft 470kts
28-Mar-19 09:41 66.691458 -32.948900 297 33250ft 469kts
28-Mar-19 09:42 66.754300 -33.237956 297 33251ft 469kts
28-Mar-19 09:43 66.816596 -33.528422 297 33253ft 468kts
28-Mar-19 09:44 66.878325 -33.820210 297 33255ft 468kts
28-Mar-19 09:45 66.939367 -34.112775 297 33256ft 468kts
28-Mar-19 09:46 66.999811 -34.406489 297 33258ft 468kts
28-Mar-19 09:47 67.059845 -34.702350 296 33260ft 467kts
28-Mar-19 09:48 67.119081 -34.998409 296 33262ft 467kts
28-Mar-19 09:49 67.177846 -35.296331 296 33264ft 467kts
28-Mar-19 09:50 67.236112 -35.596002 296 33267ft 466kts
28-Mar-19 09:51 67.293703 -35.896539 296 33272ft 467kts
28-Mar-19 09:52 67.350767 -36.198692 296 33274ft 467kts
28-Mar-19 09:53 67.407308 -36.502543 296 33279ft 466kts
28-Mar-19 09:54 67.463106 -36.806895 295 33284ft 465kts
28-Mar-19 09:55 67.518102 -37.111402 295 33291ft 464kts
28-Mar-19 09:56 67.572436 -37.416827 295 33347ft 464kts
28-Mar-19 09:57 67.626281 -37.724153 295 33354ft 463kts
28-Mar-19 09:58 67.679424 -38.032184 295 33365ft 463kts
28-Mar-19 09:59 67.732052 -38.342003 295 33377ft 463kts
28-Mar-19 10:00 67.784052 -38.652962 294 33389ft 462kts
28-Mar-19 10:01 67.835254 -38.964043 294 33403ft 461kts
28-Mar-19 10:02 67.886383 -39.275457 295 33418ft 460kts
28-Mar-19 10:03 67.936491 -39.588788 293 33435ft 460kts
28-Mar-19 10:04 67.985130 -39.903540 293 33452ft 460kts
28-Mar-19 10:05 68.030190 -40.223384 290 33469ft 461kts
28-Mar-19 10:06 68.071510 -40.547441 290 33487ft 461kts
28-Mar-19 10:07 68.112298 -40.873437 290 33534ft 461kts
28-Mar-19 10:08 68.155757 -41.195390 290 33554ft 459kts
28-Mar-19 10:09 68.196884 -41.519526 290 33575ft 458kts
28-Mar-19 10:10 68.236907 -41.844605 289 33595ft 457kts
28-Mar-19 10:11 68.276136 -42.170112 289 33617ft 456kts
28-Mar-19 10:13 68.314666 -42.496251 288 33638ft 455kts
28-Mar-19 10:14 68.352495 -42.823047 288 33660ft 455kts
28-Mar-19 10:15 68.389733 -43.151348 288 33681ft 456kts
28-Mar-19 10:16 68.426268 -43.480201 287 33731ft 454kts
28-Mar-19 10:17 68.462116 -43.809762 287 33799ft 454kts
28-Mar-19 10:18 68.497298 -44.140139 287 33816ft 454kts
28-Mar-19 10:19 68.531859 -44.471877 286 33832ft 455kts
28-Mar-19 10:20 68.565722 -44.804211 286 33847ft 455kts
28-Mar-19 10:21 68.598950 -45.137738 286 33860ft 454kts
28-Mar-19 10:22 68.631565 -45.472770 285 33880ft 454kts
28-Mar-19 10:23 68.663375 -45.807280 285 33960ft 453kts
28-Mar-19 10:24 68.694488 -46.142373 285 33961ft 452kts
28-Mar-19 10:25 68.724901 -46.478013 284 33963ft 452kts
28-Mar-19 10:26 68.754626 -46.814289 284 33963ft 452kts
28-Mar-19 10:27 68.783664 -47.151239 283 33964ft 452kts
28-Mar-19 10:28 68.812052 -47.489295 283 33965ft 452kts
28-Mar-19 10:29 68.839780 -47.828380 283 33965ft 451kts
28-Mar-19 10:30 68.866833 -48.168306 282 33965ft 450kts
28-Mar-19 10:31 68.893068 -48.507231 282 33965ft 451kts
28-Mar-19 10:32 68.918744 -48.848475 282 33965ft 451kts
28-Mar-19 10:33 68.944114 -49.188495 283 33965ft 449kts
28-Mar-19 10:34 68.968786 -49.530508 281 33965ft 449kts
28-Mar-19 10:35 68.991538 -49.872583 281 33964ft 449kts
28-Mar-19 10:36 69.006924 -50.217662 274 33964ft 449kts
28-Mar-19 10:36 69.013032 -50.507500 274 33964ft 450kts
28-Mar-19 10:38 69.021142 -50.914340 273 33964ft 449kts
28-Mar-19 10:39 69.031078 -51.259988 275 33964ft 448kts
28-Mar-19 10:39 69.037907 -51.549437 274 33964ft 448kts
28-Mar-19 10:41 69.045776 -51.954634 273 33961ft 448kts
28-Mar-19 10:41 69.050699 -52.244568 273 33959ft 447kts
28-Mar-19 10:42 69.055927 -52.591194 272 33956ft 447kts
28-Mar-19 10:44 69.061151 -52.997362 272 33951ft 447kts
28-Mar-19 10:44 69.064280 -53.286364 272 33947ft 447kts
28-Mar-19 10:45 69.067392 -53.633346 271 33941ft 447kts
28-Mar-19 10:46 69.069812 -53.981424 271 33934ft 447kts
28-Mar-19 10:47 69.071517 -54.327599 271 33926ft 446kts
28-Mar-19 10:48 69.072526 -54.674307 270 33918ft 445kts
28-Mar-19 10:49 69.072833 -55.021124 270 33908ft 445kts
28-Mar-19 10:50 69.072444 -55.366867 269 33898ft 445kts
28-Mar-19 10:51 69.071354 -55.713827 269 33886ft 445kts
28-Mar-19 10:52 69.069571 -56.059517 269 33875ft 445kts
28-Mar-19 10:53 69.067081 -56.406345 268 33862ft 445kts
28-Mar-19 10:54 69.063907 -56.751676 268 33849ft 445kts
28-Mar-19 10:55 69.060026 -57.097889 268 33836ft 446kts
28-Mar-19 10:56 69.055446 -57.444154 267 33822ft 446kts
28-Mar-19 10:57 69.050171 -57.790087 267 33809ft 446kts
28-Mar-19 10:58 69.044179 -58.137062 266 33796ft 446kts
28-Mar-19 10:59 69.037517 -58.482246 266 33783ft 446kts
28-Mar-19 11:00 69.030145 -58.828111 266 33771ft 446kts
28-Mar-19 11:01 69.022573 -59.174497 267 33759ft 446kts
28-Mar-19 11:02 69.014265 -59.519146 264 33748ft 446kts
28-Mar-19 11:03 69.004034 -59.864121 264 33738ft 446kts
28-Mar-19 11:04 68.996122 -60.210332 266 33729ft 447kts
28-Mar-19 11:05 68.989474 -60.556328 266 33721ft 447kts
28-Mar-19 11:06 68.981988 -60.901485 265 33715ft 447kts
28-Mar-19 11:07 68.977512 -61.248403 266 33710ft 447kts
28-Mar-19 11:08 68.968847 -61.592880 264 33706ft 447kts
28-Mar-19 11:09 68.959484 -61.938047 264 33719ft 446kts
28-Mar-19 11:10 68.947340 -62.281366 263 33720ft 447kts
28-Mar-19 11:11 68.933755 -62.625799 262 33723ft 447kts
28-Mar-19 11:12 68.920072 -62.967955 264 33740ft 447kts
28-Mar-19 11:13 68.908743 -63.311911 262 33743ft 447kts
28-Mar-19 11:14 68.894856 -63.654320 262 33746ft 447kts
28-Mar-19 11:15 68.879915 -63.997571 261 33748ft 447kts
28-Mar-19 11:16 68.864280 -64.339328 261 33781ft 448kts
28-Mar-19 11:17 68.847927 -64.681094 261 33781ft 448kts
28-Mar-19 11:18 68.830914 -65.021831 260 33780ft 448kts
28-Mar-19 11:19 68.813122 -65.363879 260 33773ft 448kts
28-Mar-19 11:20 68.794680 -65.704713 260 33773ft 448kts
28-Mar-19 11:21 68.775590 -66.044377 259 33708ft 448kts
28-Mar-19 11:22 68.755669 -66.385990 259 34418ft 454kts
28-Mar-19 11:23 68.734862 -66.730228 259 35621ft 457kts
28-Mar-19 11:24 68.713280 -67.075064 258 35617ft 457kts
28-Mar-19 11:25 68.691052 -67.418401 258 35604ft 457kts
28-Mar-19 11:26 68.668071 -67.761918 258 35740ft 456kts
28-Mar-19 11:27 68.644466 -68.103689 257 35743ft 457kts
28-Mar-19 11:28 68.620071 -68.446153 257 35742ft 457kts
28-Mar-19 11:29 68.594944 -68.788405 257 35590ft 458kts
28-Mar-19 11:30 68.569183 -69.129263 257 35518ft 458kts
28-Mar-19 11:31 68.543793 -69.470124 256 35502ft 458kts
28-Mar-19 11:32 68.515802 -69.809185 255 35488ft 457kts
28-Mar-19 11:33 68.484532 -70.145521 251 35478ft 457kts
28-Mar-19 11:34 68.445147 -70.474538 250 35468ft 458kts
28-Mar-19 11:35 68.405181 -70.803787 250 35465ft 459kts
28-Mar-19 11:36 68.367453 -71.135159 251 35465ft 460kts
28-Mar-19 11:37 68.328560 -71.464719 250 35461ft 460kts
28-Mar-19 11:38 68.288276 -71.792696 250 35462ft 460kts
28-Mar-19 11:39 68.247180 -72.119876 249 35464ft 459kts
28-Mar-19 11:40 68.205544 -72.444933 249 35467ft 460kts
28-Mar-19 11:41 68.163046 -72.770507 249 35469ft 461kts
28-Mar-19 11:42 68.119862 -73.095230 249 35473ft 463kts
28-Mar-19 11:43 68.075837 -73.420250 248 35479ft 464kts
28-Mar-19 11:44 68.031219 -73.743668 248 35485ft 463kts
28-Mar-19 11:45 67.986049 -74.065357 248 35491ft 464kts
28-Mar-19 11:46 67.940206 -74.386065 247 35498ft 463kts
28-Mar-19 11:47 67.893752 -74.705451 247 35505ft 463kts
28-Mar-19 11:48 67.846701 -75.023407 247 35512ft 464kts
28-Mar-19 11:49 67.798852 -75.341280 246 35518ft 465kts
28-Mar-19 11:50 67.750217 -75.658954 246 35524ft 467kts
28-Mar-19 11:51 67.700879 -75.975853 246 35525ft 468kts
28-Mar-19 11:52 67.650823 -76.292127 246 35529ft 468kts
28-Mar-19 11:53 67.600231 -76.606556 245 35534ft 468kts
28-Mar-19 11:54 67.548987 -76.919927 245 35537ft 468kts
28-Mar-19 11:55 67.497020 -77.232666 245 35538ft 469kts
28-Mar-19 11:56 67.444348 -77.544629 245 35538ft 470kts
28-Mar-19 11:57 67.391037 -77.855435 244 35537ft 471kts
28-Mar-19 11:58 67.336944 -78.165966 244 35567ft 472kts
28-Mar-19 11:59 67.282291 -78.474863 244 35563ft 472kts
28-Mar-19 12:00 67.226982 -78.782732 243 35557ft 473kts
28-Mar-19 12:01 67.170964 -79.089857 243 35570ft 473kts
28-Mar-19 12:02 67.115164 -79.397637 243 35581ft 474kts
28-Mar-19 12:03 67.057476 -79.701272 242 35576ft 475kts
28-Mar-19 12:04 66.999018 -80.005002 242 35571ft 475kts
28-Mar-19 12:05 66.938519 -80.306481 241 35565ft 477kts
28-Mar-19 12:06 66.876977 -80.606141 241 35559ft 477kts
28-Mar-19 12:07 66.816197 -80.905368 243 35552ft 478kts
28-Mar-19 12:08 66.755599 -81.205779 241 35545ft 478kts
28-Mar-19 12:09 66.693490 -81.503124 241 35538ft 479kts
28-Mar-19 12:10 66.630435 -81.799909 241 35556ft 479kts
28-Mar-19 12:11 66.566964 -82.094386 241 35556ft 480kts
28-Mar-19 12:12 66.502660 -82.388642 240 35560ft 481kts
28-Mar-19 12:13 66.437771 -82.681521 240 35560ft 481kts
28-Mar-19 12:14 66.372122 -82.973785 240 35562ft 482kts
28-Mar-19 12:15 66.306013 -83.264217 240 35564ft 483kts
28-Mar-19 12:16 66.239198 -83.553818 240 35586ft 484kts
28-Mar-19 12:17 66.171642 -83.842747 239 35603ft 484kts
28-Mar-19 12:18 66.103604 -84.129900 239 35606ft 484kts
28-Mar-19 12:19 66.035271 -84.414538 239 35609ft 485kts
28-Mar-19 12:20 65.966055 -84.699097 239 35610ft 485kts
28-Mar-19 12:21 65.896155 -84.982813 239 35612ft 486kts
28-Mar-19 12:22 65.825630 -85.265373 239 35612ft 487kts
28-Mar-19 12:23 65.754707 -85.545909 239 35612ft 488kts
28-Mar-19 12:24 65.682876 -85.826449 239 35610ft 489kts
28-Mar-19 12:25 65.610460 -86.105699 238 35607ft 489kts
28-Mar-19 12:26 65.537514 -86.383481 238 35615ft 489kts
28-Mar-19 12:27 65.464099 -86.659573 238 35616ft 490kts
28-Mar-19 12:28 65.389925 -86.935065 238 35616ft 490kts
28-Mar-19 12:29 65.315255 -87.208994 238 35616ft 491kts
28-Mar-19 12:30 65.240086 -87.481391 238 35618ft 492kts
28-Mar-19 12:31 65.164401 -87.752336 238 35622ft 492kts
28-Mar-19 12:32 65.087873 -88.022986 238 35626ft 492kts
28-Mar-19 12:33 65.010933 -88.291827 238 35633ft 494kts
28-Mar-19 12:34 64.933473 -88.559267 238 35641ft 494kts
28-Mar-19 12:35 64.855512 -88.825242 238 35649ft 494kts
28-Mar-19 12:36 64.776956 -89.090104 237 35659ft 494kts
28-Mar-19 12:37 64.697858 -89.353691 237 35669ft 495kts
28-Mar-19 12:38 64.618921 -89.616685 237 35679ft 495kts
28-Mar-19 12:39 64.538217 -89.877089 237 35705ft 495kts
28-Mar-19 12:40 64.449832 -90.122182 228 35718ft 499kts
28-Mar-19 12:41 64.350576 -90.347106 227 35727ft 500kts
28-Mar-19 12:42 64.251463 -90.572261 228 35764ft 501kts
28-Mar-19 12:43 64.153479 -90.800431 228 35778ft 500kts
28-Mar-19 12:44 64.054509 -91.024808 228 35778ft 502kts
28-Mar-19 12:45 63.954855 -91.247685 228 35775ft 502kts
28-Mar-19 12:46 63.854993 -91.468588 228 35774ft 503kts
28-Mar-19 12:47 63.754291 -91.689028 228 35787ft 503kts
28-Mar-19 12:48 63.653034 -91.908348 227 35789ft 504kts
28-Mar-19 12:49 63.551634 -92.125729 227 35790ft 503kts
28-Mar-19 12:50 63.450210 -92.340916 227 35818ft 504kts
28-Mar-19 12:51 63.348051 -92.555433 227 35814ft 504kts
28-Mar-19 12:52 63.245780 -92.768026 227 35801ft 503kts
28-Mar-19 12:53 63.142942 -92.979622 227 35803ft 504kts
28-Mar-19 12:54 63.039895 -93.189508 227 35806ft 504kts
28-Mar-19 12:55 62.936757 -93.397476 227 35811ft 504kts
28-Mar-19 12:56 62.832966 -93.604674 227 35818ft 504kts
28-Mar-19 12:58 62.729201 -93.809786 226 35837ft 503kts
28-Mar-19 12:59 62.624965 -94.013766 226 35850ft 503kts
28-Mar-19 13:00 62.520693 -94.215835 226 35867ft 503kts
28-Mar-19 13:01 62.415973 -94.416795 226 35881ft 503kts
28-Mar-19 13:02 62.310965 -94.616348 226 35894ft 503kts
28-Mar-19 13:03 62.205895 -94.814097 226 35905ft 503kts
28-Mar-19 13:04 62.100393 -95.010755 226 35915ft 504kts
28-Mar-19 13:05 61.994089 -95.207014 225 35923ft 504kts
28-Mar-19 13:06 61.888079 -95.400867 225 35929ft 503kts
28-Mar-19 13:07 61.781746 -95.593475 225 35934ft 503kts
28-Mar-19 13:08 61.675283 -95.784509 225 35938ft 503kts
28-Mar-19 13:09 61.568436 -95.974438 225 35941ft 503kts
28-Mar-19 13:10 61.460902 -96.163808 225 35970ft 504kts
28-Mar-19 13:11 61.353589 -96.351038 225 35972ft 503kts
28-Mar-19 13:12 61.245901 -96.537190 225 35975ft 504kts
28-Mar-19 13:13 61.137711 -96.722496 224 35996ft 503kts
28-Mar-19 13:14 61.029567 -96.906032 224 36009ft 504kts
28-Mar-19 13:15 60.921189 -97.088299 224 36013ft 503kts
28-Mar-19 13:16 60.812531 -97.269383 224 36017ft 504kts
28-Mar-19 13:17 60.703450 -97.449541 224 36022ft 504kts
28-Mar-19 13:18 60.593831 -97.628966 224 36026ft 504kts
28-Mar-19 13:19 60.484365 -97.806542 224 36030ft 503kts
28-Mar-19 13:20 60.374614 -97.983008 224 36034ft 504kts
28-Mar-19 13:21 60.264727 -98.158127 224 36038ft 504kts
28-Mar-19 13:22 60.154488 -98.332271 223 36044ft 504kts
28-Mar-19 13:22 60.062402 -98.476573 223 36047ft 504kts
28-Mar-19 13:24 59.933068 -98.677480 223 36047ft 504kts
28-Mar-19 13:25 59.822054 -98.848314 223 36049ft 504kts
28-Mar-19 13:25 59.729365 -98.989824 223 36051ft 503kts
28-Mar-19 13:27 59.599509 -99.186383 223 36053ft 504kts
28-Mar-19 13:27 59.506776 -99.325549 223 36055ft 504kts
28-Mar-19 13:29 59.375932 -99.520244 223 36056ft 504kts
28-Mar-19 13:29 59.282965 -99.657418 223 36057ft 504kts
28-Mar-19 13:30 59.170608 -99.821926 223 36058ft 504kts
28-Mar-19 13:31 59.058244 -99.985072 223 36058ft 504kts
28-Mar-19 13:32 58.945869 -100.147543 223 36058ft 504kts
28-Mar-19 13:34 58.814185 -100.335384 222 36062ft 504kts
28-Mar-19 13:34 58.719713 -100.467971 220 36058ft 506kts
28-Mar-19 13:35 58.592969 -100.591299 210 36068ft 515kts
28-Mar-19 13:36 58.462887 -100.706434 211 36069ft 515kts
28-Mar-19 13:37 58.333294 -100.822945 211 36071ft 514kts
28-Mar-19 13:38 58.204129 -100.938555 211 36070ft 514kts
28-Mar-19 13:39 58.074326 -101.053269 211 36073ft 515kts
28-Mar-19 13:40 57.944453 -101.167037 211 36074ft 515kts
28-Mar-19 13:41 57.814588 -101.279892 211 36074ft 515kts
28-Mar-19 13:42 57.684189 -101.392305 211 36074ft 515kts
28-Mar-19 13:43 57.554086 -101.503576 211 36074ft 515kts
28-Mar-19 13:44 57.423723 -101.614192 210 36071ft 515kts
28-Mar-19 13:45 57.293221 -101.724056 210 36064ft 515kts
28-Mar-19 13:46 57.162396 -101.833332 210 36065ft 515kts
28-Mar-19 13:47 57.031770 -101.941598 210 36065ft 516kts
28-Mar-19 13:48 56.900787 -102.049314 211 36065ft 516kts
28-Mar-19 13:49 56.770060 -102.156006 211 36071ft 516kts
28-Mar-19 13:50 56.638638 -102.262442 211 36072ft 516kts
28-Mar-19 13:51 56.507092 -102.368163 211 36075ft 517kts
28-Mar-19 13:52 56.375905 -102.472798 210 36078ft 517kts
28-Mar-19 13:53 56.243963 -102.577241 210 36082ft 517kts
28-Mar-19 13:54 56.112677 -102.680383 210 36088ft 516kts
28-Mar-19 13:55 55.980910 -102.783130 210 36095ft 516kts
28-Mar-19 13:56 55.849185 -102.885085 210 36099ft 514kts
28-Mar-19 13:57 55.717809 -102.986020 210 36105ft 516kts
28-Mar-19 13:58 55.586063 -103.086497 210 36110ft 516kts
28-Mar-19 13:59 55.454495 -103.186100 210 36115ft 515kts
28-Mar-19 14:00 55.322339 -103.285428 210 36118ft 515kts
28-Mar-19 14:01 55.190527 -103.383775 210 36120ft 516kts
28-Mar-19 14:02 55.058345 -103.481693 210 36142ft 514kts
28-Mar-19 14:03 54.926652 -103.578544 210 36143ft 514kts
28-Mar-19 14:04 54.794928 -103.674734 209 36145ft 514kts
28-Mar-19 14:05 54.663233 -103.770220 209 36154ft 513kts
28-Mar-19 14:06 54.531371 -103.865160 209 36162ft 513kts
28-Mar-19 14:07 54.399731 -103.959280 209 36169ft 512kts
28-Mar-19 14:08 54.268426 -104.052503 209 36184ft 511kts
28-Mar-19 14:09 54.137272 -104.144977 208 36193ft 511kts
28-Mar-19 14:10 54.005359 -104.237350 208 36201ft 511kts
28-Mar-19 14:11 53.873892 -104.328782 208 36208ft 510kts
28-Mar-19 14:12 53.742696 -104.419407 208 36214ft 510kts
28-Mar-19 14:13 53.611380 -104.509504 208 36218ft 509kts
28-Mar-19 14:14 53.480068 -104.598992 208 36221ft 508kts
28-Mar-19 14:15 53.348956 -104.687750 207 36223ft 508kts
28-Mar-19 14:16 53.217743 -104.775987 207 36229ft 507kts
28-Mar-19 14:17 53.087145 -104.863231 207 36216ft 506kts
28-Mar-19 14:18 52.956378 -104.950020 207 36218ft 505kts
28-Mar-19 14:19 52.825640 -105.036224 206 36222ft 504kts
28-Mar-19 14:20 52.695269 -105.121633 206 36226ft 503kts
28-Mar-19 14:21 52.565486 -105.206113 206 36230ft 502kts
28-Mar-19 14:22 52.435391 -105.290258 206 36237ft 501kts
28-Mar-19 14:23 52.305619 -105.373666 205 36243ft 500kts
28-Mar-19 14:24 52.176282 -105.456664 205 36249ft 499kts
28-Mar-19 14:25 52.046786 -105.538604 205 36262ft 499kts
28-Mar-19 14:26 51.918558 -105.622312 208 36268ft 495kts
28-Mar-19 14:27 51.793614 -105.716769 208 36269ft 495kts
28-Mar-19 14:28 51.668576 -105.809548 208 36271ft 494kts
28-Mar-19 14:29 51.543635 -105.902634 208 36274ft 494kts
28-Mar-19 14:30 51.418943 -105.994452 208 36277ft 493kts
28-Mar-19 14:31 51.294458 -106.085413 208 36281ft 492kts
28-Mar-19 14:32 51.169700 -106.176002 207 36284ft 491kts
28-Mar-19 14:33 51.046035 -106.265265 207 36288ft 489kts
28-Mar-19 14:34 50.922249 -106.354092 207 36290ft 487kts
28-Mar-19 14:35 50.798928 -106.442070 207 36292ft 486kts
28-Mar-19 14:36 50.675731 -106.529451 207 36292ft 484kts
28-Mar-19 14:37 50.552736 -106.616193 207 36291ft 484kts
28-Mar-19 14:38 50.430219 -106.702099 206 36289ft 483kts
28-Mar-19 14:39 50.307379 -106.787746 206 36286ft 483kts
28-Mar-19 14:40 50.184523 -106.873275 206 36283ft 483kts
28-Mar-19 14:41 50.061714 -106.957682 206 36281ft 482kts
28-Mar-19 14:42 49.939558 -107.041465 206 36279ft 476kts
28-Mar-19 14:43 49.818536 -107.124071 206 36281ft 476kts
28-Mar-19 14:44 49.697211 -107.206408 206 36281ft 475kts
28-Mar-19 14:45 49.576423 -107.288945 206 36282ft 474kts
28-Mar-19 14:46 49.455922 -107.370326 206 36283ft 474kts
28-Mar-19 14:47 49.335042 -107.451428 206 36280ft 473kts
28-Mar-19 14:48 49.214301 -107.531987 205 36279ft 472kts
28-Mar-19 14:49 49.093947 -107.611860 205 36278ft 471kts
28-Mar-19 14:50 48.973951 -107.691079 206 36275ft 469kts
28-Mar-19 14:51 48.854412 -107.769584 206 36274ft 467kts
28-Mar-19 14:52 48.735250 -107.847789 206 36272ft 465kts
28-Mar-19 14:53 48.616490 -107.924804 205 36270ft 464kts
28-Mar-19 14:54 48.498076 -108.001197 205 36269ft 462kts
28-Mar-19 14:55 48.378692 -108.074017 204 36267ft 461kts
28-Mar-19 14:56 48.259884 -108.145903 204 36268ft 460kts
28-Mar-19 14:57 48.141017 -108.217937 205 36267ft 460kts
28-Mar-19 14:58 48.022407 -108.289764 204 36264ft 460kts
28-Mar-19 14:59 47.903605 -108.361053 204 36261ft 459kts
28-Mar-19 15:00 47.785282 -108.431651 204 36257ft 459kts
28-Mar-19 15:01 47.666925 -108.501914 204 36252ft 457kts
28-Mar-19 15:02 47.548780 -108.571709 204 36246ft 457kts
28-Mar-19 15:03 47.430796 -108.641071 204 36232ft 455kts
28-Mar-19 15:04 47.313268 -108.709832 204 36224ft 454kts
28-Mar-19 15:05 47.195667 -108.778313 204 36220ft 453kts
28-Mar-19 15:06 47.078721 -108.846076 204 36216ft 452kts
28-Mar-19 15:07 46.962024 -108.913382 204 36211ft 451kts
28-Mar-19 15:08 46.845217 -108.980435 204 36209ft 450kts
28-Mar-19 15:09 46.728604 -109.047065 204 36209ft 449kts
28-Mar-19 15:10 46.612184 -109.113276 204 36208ft 449kts
28-Mar-19 15:11 46.495662 -109.179245 204 36208ft 447kts
28-Mar-19 15:12 46.379625 -109.244628 204 36204ft 447kts
28-Mar-19 15:13 46.263617 -109.309701 204 36201ft 447kts
28-Mar-19 15:14 46.147675 -109.374442 203 36198ft 447kts
28-Mar-19 15:15 46.031497 -109.439022 203 36195ft 448kts
28-Mar-19 15:16 45.915534 -109.503193 204 36192ft 443kts
28-Mar-19 15:17 45.800587 -109.566520 203 36188ft 445kts
28-Mar-19 15:18 45.684734 -109.630064 203 36169ft 443kts
28-Mar-19 15:19 45.569749 -109.692848 204 36166ft 443kts
28-Mar-19 15:20 45.454486 -109.755514 204 36163ft 442kts
28-Mar-19 15:21 45.339934 -109.817523 204 36162ft 440kts
28-Mar-19 15:22 45.225588 -109.879413 204 36164ft 438kts
28-Mar-19 15:23 45.111940 -109.940266 204 36163ft 435kts
28-Mar-19 15:24 44.998853 -110.000621 205 36162ft 433kts
28-Mar-19 15:25 44.886666 -110.063102 205 36161ft 432kts
28-Mar-19 15:26 44.774878 -110.125116 205 36792ft 436kts
28-Mar-19 15:27 44.661903 -110.187647 206 38135ft 438kts
28-Mar-19 15:28 44.548413 -110.250713 206 38156ft 438kts
28-Mar-19 15:29 44.434990 -110.313154 206 38159ft 437kts
28-Mar-19 15:30 44.321973 -110.375049 206 38157ft 436kts
28-Mar-19 15:31 44.209067 -110.436617 206 38148ft 436kts
28-Mar-19 15:32 44.104381 -110.493475 206 38142ft 436kts
28-Mar-19 15:33 43.991049 -110.554781 206 38140ft 436kts
28-Mar-19 15:34 43.878698 -110.615308 206 38139ft 432kts
28-Mar-19 15:35 43.766251 -110.675645 206 38139ft 433kts
28-Mar-19 15:36 43.654333 -110.735455 206 38141ft 432kts
28-Mar-19 15:37 43.542185 -110.795149 206 38142ft 431kts
28-Mar-19 15:38 43.430123 -110.854559 206 38148ft 431kts
28-Mar-19 15:39 43.318184 -110.913667 206 38153ft 431kts
28-Mar-19 15:40 43.206355 -110.972485 206 38157ft 430kts
28-Mar-19 15:41 43.094623 -111.031021 206 38159ft 430kts
28-Mar-19 15:42 42.982998 -111.089273 206 38157ft 429kts
28-Mar-19 15:43 42.871391 -111.147291 206 38156ft 428kts
28-Mar-19 15:44 42.760144 -111.204895 206 38156ft 427kts
28-Mar-19 15:45 42.648947 -111.262253 206 38155ft 427kts
28-Mar-19 15:47 42.538228 -111.319147 206 38152ft 426kts
28-Mar-19 15:48 42.427336 -111.375914 206 38139ft 425kts
28-Mar-19 15:49 42.316767 -111.432302 206 38137ft 424kts
28-Mar-19 15:50 42.206374 -111.488388 206 38131ft 424kts
28-Mar-19 15:51 42.095902 -111.544305 206 38123ft 423kts
28-Mar-19 15:52 41.985589 -111.599933 206 38118ft 422kts
28-Mar-19 15:53 41.876026 -111.654981 206 38113ft 421kts
28-Mar-19 15:54 41.766030 -111.710043 206 38109ft 421kts
28-Mar-19 15:55 41.655974 -111.764933 206 38106ft 421kts
28-Mar-19 15:56 41.546259 -111.819454 206 38100ft 421kts
28-Mar-19 15:57 41.436423 -111.873838 206 38089ft 421kts
28-Mar-19 15:58 41.337611 -111.922596 206 38079ft 421kts
28-Mar-19 15:59 41.228080 -111.976457 206 38071ft 420kts
28-Mar-19 16:00 41.118342 -112.030229 206 38070ft 420kts
28-Mar-19 16:01 41.008736 -112.083744 206 38069ft 419kts
28-Mar-19 16:02 40.899535 -112.136873 206 38068ft 419kts
28-Mar-19 16:03 40.790063 -112.189947 206 38044ft 418kts
28-Mar-19 16:04 40.680908 -112.242682 206 38052ft 418kts
28-Mar-19 16:05 40.571672 -112.295273 206 38058ft 417kts
28-Mar-19 16:06 40.462770 -112.347521 206 38054ft 417kts
28-Mar-19 16:07 40.353607 -112.399716 206 38048ft 418kts
28-Mar-19 16:08 40.243523 -112.452303 206 38040ft 426kts
28-Mar-19 16:09 40.132048 -112.505246 206 38027ft 425kts
28-Mar-19 16:09 40.039479 -112.548969 206 38023ft 425kts
28-Mar-19 16:11 39.908744 -112.607238 203 38018ft 425kts
28-Mar-19 16:11 39.813952 -112.644334 204 38013ft 426kts
28-Mar-19 16:12 39.700091 -112.689315 204 38006ft 428kts
28-Mar-19 16:14 39.567581 -112.741945 204 37998ft 427kts
28-Mar-19 16:14 39.472870 -112.779441 204 37995ft 427kts
28-Mar-19 16:16 39.339795 -112.831846 204 37996ft 427kts
28-Mar-19 16:16 39.245419 -112.868871 204 37999ft 427kts
28-Mar-19 16:17 39.131533 -112.913409 204 38005ft 427kts
28-Mar-19 16:18 39.017628 -112.957806 204 38023ft 428kts
28-Mar-19 16:19 38.903075 -113.002302 204 38030ft 428kts
28-Mar-19 16:20 38.789024 -113.046454 204 38024ft 428kts
28-Mar-19 16:21 38.674636 -113.090590 204 38024ft 429kts
28-Mar-19 16:22 38.560208 -113.134595 204 38022ft 429kts
28-Mar-19 16:23 38.445735 -113.178475 204 38021ft 429kts
28-Mar-19 16:24 38.331258 -113.222206 204 38024ft 430kts
28-Mar-19 16:25 38.216589 -113.265869 204 38030ft 430kts
28-Mar-19 16:26 38.102136 -113.309439 204 38039ft 430kts
28-Mar-19 16:27 37.987304 -113.352796 204 38044ft 430kts
28-Mar-19 16:28 37.875711 -113.404816 215 38048ft 424kts
28-Mar-19 16:29 37.776848 -113.483113 218 38051ft 417kts
28-Mar-19 16:30 37.678878 -113.561228 217 38063ft 418kts
28-Mar-19 16:31 37.580398 -113.639409 218 38061ft 418kts
28-Mar-19 16:32 37.482033 -113.717424 217 38064ft 418kts
28-Mar-19 16:33 37.383218 -113.795281 217 38066ft 418kts
28-Mar-19 16:34 37.284546 -113.872745 217 38067ft 419kts
28-Mar-19 16:35 37.185749 -113.950063 217 38068ft 419kts
28-Mar-19 16:36 37.086781 -114.027272 217 38067ft 420kts
28-Mar-19 16:37 36.987567 -114.104702 218 38078ft 420kts
28-Mar-19 16:38 36.885090 -114.176009 211 38073ft 426kts
28-Mar-19 16:39 36.776263 -114.236570 211 38069ft 428kts
28-Mar-19 16:40 36.667630 -114.296877 211 38066ft 428kts
28-Mar-19 16:41 36.558634 -114.357230 211 38058ft 429kts
28-Mar-19 16:42 36.449419 -114.417525 211 38053ft 429kts
28-Mar-19 16:43 36.340093 -114.477695 211 38049ft 429kts
28-Mar-19 16:44 36.231028 -114.537537 211 38061ft 429kts
28-Mar-19 16:45 36.121878 -114.597243 211 38042ft 429kts
28-Mar-19 16:46 36.031511 -114.646537 211 38044ft 429kts
28-Mar-19 16:47 35.922008 -114.706104 211 38049ft 430kts
28-Mar-19 16:48 35.812602 -114.765437 211 38049ft 430kts
28-Mar-19 16:49 35.703404 -114.824478 211 38049ft 430kts
28-Mar-19 16:50 35.593873 -114.883522 211 38050ft 429kts
28-Mar-19 16:51 35.484097 -114.942526 211 38048ft 430kts
28-Mar-19 16:52 35.374587 -115.001204 211 38048ft 429kts
28-Mar-19 16:53 35.265094 -115.059702 211 38048ft 430kts
28-Mar-19 16:54 35.155316 -115.118180 211 38050ft 430kts
28-Mar-19 16:55 35.045837 -115.176327 211 38053ft 429kts
28-Mar-19 16:56 34.936427 -115.234269 211 38069ft 429kts
28-Mar-19 16:57 34.827013 -115.292043 211 38078ft 428kts
28-Mar-19 16:58 34.717672 -115.349614 211 38094ft 429kts
28-Mar-19 16:59 34.607990 -115.407201 211 38104ft 428kts
28-Mar-19 17:00 34.498517 -115.464575 211 38123ft 428kts
28-Mar-19 17:01 34.388836 -115.522019 211 38133ft 429kts
28-Mar-19 17:02 34.279333 -115.578969 211 38141ft 429kts
28-Mar-19 17:03 34.169072 -115.634776 209 38126ft 430kts
28-Mar-19 17:04 34.057281 -115.687206 209 37083ft 435kts
28-Mar-19 17:05 33.945002 -115.739993 209 35078ft 423kts
28-Mar-19 17:06 33.838341 -115.791866 209 32887ft 405kts
28-Mar-19 17:07 33.735623 -115.841542 207 30749ft 391kts
28-Mar-19 17:08 33.635993 -115.888078 207 28644ft 377kts
28-Mar-19 17:09 33.539662 -115.933189 210 26577ft 364kts
28-Mar-19 17:10 33.472546 -116.016780 237 24742ft 347kts
28-Mar-19 17:11 33.418548 -116.110976 238 23034ft 338kts
28-Mar-19 17:12 33.365295 -116.202349 238 21381ft 331kts
28-Mar-19 17:13 33.297264 -116.274700 213 19726ft 338kts
28-Mar-19 17:14 33.213779 -116.322915 211 18076ft 329kts
28-Mar-19 17:15 33.131595 -116.370709 211 16456ft 325kts
28-Mar-19 17:16 33.051010 -116.417676 211 14863ft 321kts
28-Mar-19 17:17 32.975903 -116.472569 224 13073ft 310kts
28-Mar-19 17:18 32.925419 -116.525032 224 11906ft 302kts
28-Mar-19 17:19 32.863761 -116.587205 223 10467ft 290kts
28-Mar-19 17:20 32.804629 -116.646736 223 9087ft 280kts
28-Mar-19 17:21 32.755259 -116.714644 242 7734ft 267kts
28-Mar-19 17:22 32.721239 -116.789254 242 6461ft 242kts
28-Mar-19 17:23 32.693970 -116.859150 252 5332ft 228kts
28-Mar-19 17:24 32.674263 -116.928804 260 4308ft 216kts
28-Mar-19 17:25 32.686034 -116.994869 287 3362ft 188kts
28-Mar-19 17:26 32.699133 -117.047742 286 2519ft 148kts
28-Mar-19 17:27 32.709616 -117.090943 286 1789ft 128kts
28-Mar-19 17:28 32.719599 -117.132089 286 994ft 128kts
28-Mar-19 17:29 32.729534 -117.173093 287 217ft 129kts
28-Mar-19 17:30 32.736043 -117.200001 284 28ft 25kts
28-Mar-19 17:31 32.735963 -117.203879 285 28ft 9kts
28-Mar-19 17:32 32.735486 -117.206699 210 28ft 10kts
28-Mar-19 17:33 32.732890 -117.207047 191 28ft 7kts
28-Mar-19 17:34 32.732535 -117.207133 191 28ft 0kts
28-Mar-19 17:35 32.732535 -117.207133 191 28ft 0kts
28-Mar-19 17:36 32.732535 -117.207133 191 28ft 0kts
28-Mar-19 17:37 32.732535 -117.207133 191 28ft 0kts
28-Mar-19 17:38 32.732535 -117.207133 191 28ft 0kts
28-Mar-19 17:39 32.732535 -117.207133 191 28ft 0kts
28-Mar-19 17:40 32.732535 -117.207133 191 28ft 0kts
28-Mar-19 17:41 32.732535 -117.207133 191 28ft 0kts
28-Mar-19 17:42 32.732535 -117.207133 191 28ft 0kts
28-Mar-19 17:43 32.732535 -117.207133 191 28ft 0kts
28-Mar-19 17:44 32.732535 -117.207133 191 28ft 0kts

Navigation Log

Ident Type
Flight plan parsing failed, navigation log unavailable